Time;durP1;ratioP1;P1;durP2;ratioP2;P2;SDS_P1;SDS_P2;PMS_P1;PMS_P2;Temp;Humidity;BMP_temperature;BMP_pressure;BME280_temperature;BME280_humidity;BME280_pressure;Samples;Min_cycle;Max_cycle;Signal;HPM_P1;HPM_P2
2021/09/20 00:01:04;;;;;;;1.37;0.70;;;;;;;18.47;44.99;98471.63;1733757;81;20992;-41
2021/09/20 00:03:30;;;;;;;2.30;0.75;;;;;;;18.45;45.04;98462.43;1737303;80;21881;-41
2021/09/20 00:05:58;;;;;;;0.80;0.60;;;;;;;18.46;45.08;98465.47;1727755;81;21003;-42
2021/09/20 00:08:24;;;;;;;1.90;0.72;;;;;;;18.46;45.08;98465.92;1720569;81;21925;-41
2021/09/20 00:10:51;;;;;;;1.47;0.75;;;;;;;18.45;45.12;98462.92;1727544;81;21041;-44
2021/09/20 00:13:19;;;;;;;1.57;0.70;;;;;;;18.45;45.09;98466.42;1730979;81;21647;-43
2021/09/20 00:15:47;;;;;;;2.52;0.90;;;;;;;18.43;45.16;98468.37;1717161;80;21172;-42
2021/09/20 00:18:13;;;;;;;0.98;0.80;;;;;;;18.43;45.16;98463.05;1727090;81;21479;-41
2021/09/20 00:20:40;;;;;;;1.60;0.53;;;;;;;18.42;45.82;98465.34;1722628;81;21046;-41
2021/09/20 00:23:06;;;;;;;3.95;0.80;;;;;;;18.40;47.54;98460.64;1723607;81;21553;-42
2021/09/20 00:25:34;;;;;;;5.92;2.98;;;;;;;18.39;48.45;98462.94;1725176;81;20880;-39
2021/09/20 00:28:01;;;;;;;9.63;4.58;;;;;;;18.40;48.22;98455.31;1735086;81;21919;-46
2021/09/20 00:30:29;;;;;;;8.80;3.80;;;;;;;18.41;47.93;98465.01;1734251;80;21137;-43
2021/09/20 00:32:55;;;;;;;7.65;3.22;;;;;;;18.43;48.04;98464.88;1711731;81;21015;-40
2021/09/20 00:35:21;;;;;;;6.80;2.10;;;;;;;18.42;48.52;98453.86;1736439;81;21078;-40
2021/09/20 00:37:49;;;;;;;5.33;1.98;;;;;;;18.40;48.51;98452.66;1736132;81;21050;-40
2021/09/20 00:40:16;;;;;;;4.28;1.70;;;;;;;18.40;48.79;98449.98;1741935;81;21440;-41
2021/09/20 00:42:42;;;;;;;5.75;1.37;;;;;;;18.40;48.61;98447.33;1736493;80;20995;-40
2021/09/20 00:45:09;;;;;;;4.30;1.37;;;;;;;18.42;48.21;98453.36;1735868;80;21019;-40
2021/09/20 00:47:36;;;;;;;3.17;1.30;;;;;;;18.42;48.17;98450.70;1746173;80;21193;-43
2021/09/20 00:50:05;;;;;;;2.35;1.17;;;;;;;18.43;47.92;98447.07;1738529;81;21042;-42
2021/09/20 00:52:33;;;;;;;6.17;1.00;;;;;;;18.45;47.76;98457.10;1731441;81;21019;-41
2021/09/20 00:55:02;;;;;;;4.78;1.20;;;;;;;18.47;47.67;98458.31;1736275;80;21085;-41
2021/09/20 00:57:31;;;;;;;1.55;1.10;;;;;;;18.46;47.47;98453.48;1738930;81;21085;-43
2021/09/20 00:59:57;;;;;;;3.95;1.47;;;;;;;18.46;47.34;98455.27;1736533;81;21863;-40
2021/09/20 01:02:24;;;;;;;1.87;1.00;;;;;;;18.46;47.39;98457.47;1718545;81;21049;-41
2021/09/20 01:04:52;;;;;;;4.08;1.15;;;;;;;18.48;47.32;98456.02;1737355;80;21129;-43
2021/09/20 01:07:20;;;;;;;2.05;1.20;;;;;;;18.51;47.16;98459.26;1731572;81;22182;-42
2021/09/20 01:09:46;;;;;;;2.17;0.80;;;;;;;18.51;47.01;98455.77;1733138;80;21173;-42
2021/09/20 01:12:14;;;;;;;1.15;0.90;;;;;;;18.52;46.93;98450.28;1733643;81;21065;-40
2021/09/20 01:14:41;;;;;;;5.15;1.42;;;;;;;18.52;46.91;98453.44;1732372;81;21457;-41
2021/09/20 01:17:09;;;;;;;1.37;0.75;;;;;;;18.52;46.85;98456.94;1730794;81;20995;-40
2021/09/20 01:19:35;;;;;;;0.80;0.60;;;;;;;18.52;46.74;98451.61;1730856;81;20979;-42
2021/09/20 01:22:06;;;;;;;1.95;0.60;;;;;;;18.52;46.68;98451.61;1731673;81;21093;-42
2021/09/20 01:24:32;;;;;;;1.35;0.50;;;;;;;18.51;46.71;98451.77;1731104;81;21021;-40
2021/09/20 01:27:01;;;;;;;1.57;0.78;;;;;;;18.53;46.68;98445.31;1703213;81;21181;-44
2021/09/20 01:29:27;;;;;;;1.47;0.55;;;;;;;18.53;46.48;98441.33;1734520;81;21744;-43
2021/09/20 01:31:54;;;;;;;2.50;0.60;;;;;;;18.51;46.68;98450.44;1742975;81;21620;-41
2021/09/20 01:34:21;;;;;;;8.70;0.62;;;;;;;18.49;46.64;98448.36;1744763;81;20999;-41
2021/09/20 01:36:47;;;;;;;2.15;0.90;;;;;;;18.49;46.67;98447.90;1725151;81;21482;-41
2021/09/20 01:39:26;;;;;;;1.45;0.60;;;;;;;18.49;46.59;98442.57;1741314;81;21016;-42
2021/09/20 01:41:53;;;;;;;2.90;0.57;;;;;;;18.49;46.51;98440.38;1742707;81;21113;-41
2021/09/20 01:44:20;;;;;;;2.65;0.50;;;;;;;18.47;46.63;98443.66;1745057;80;22192;-41
2021/09/20 01:46:48;;;;;;;1.10;0.60;;;;;;;18.47;46.67;98440.50;1713520;81;21071;-43
2021/09/20 01:49:14;;;;;;;2.00;0.80;;;;;;;18.49;46.64;98443.91;1742835;80;21157;-43
2021/09/20 01:51:41;;;;;;;1.37;0.55;;;;;;;18.52;46.61;98444.11;1744927;81;21051;-41
2021/09/20 01:54:07;;;;;;;1.15;0.50;;;;;;;18.53;46.66;98440.48;1746251;80;21150;-41
2021/09/20 01:56:34;;;;;;;0.65;0.60;;;;;;;18.54;46.54;98445.69;1736128;81;21070;-40
2021/09/20 01:59:01;;;;;;;1.57;0.40;;;;;;;18.54;46.51;98439.03;1742584;80;21039;-41
2021/09/20 02:01:27;;;;;;;2.15;0.42;;;;;;;18.53;46.48;98437.33;1744359;80;21015;-42
2021/09/20 02:03:54;;;;;;;0.50;0.50;;;;;;;18.54;46.45;98448.35;1742390;80;21007;-40
2021/09/20 02:06:21;;;;;;;4.53;0.60;;;;;;;18.54;46.29;98436.83;1725877;81;20995;-42
2021/09/20 02:08:50;;;;;;;15.35;0.68;;;;;;;18.53;46.31;98436.00;1728273;80;20991;-42
2021/09/20 02:11:19;;;;;;;0.57;0.53;;;;;;;18.52;46.37;98443.62;1742089;81;20930;-40
2021/09/20 02:13:46;;;;;;;2.85;0.55;;;;;;;18.52;46.30;98439.63;1706632;82;20999;-41
2021/09/20 02:16:12;;;;;;;0.78;0.40;;;;;;;18.51;46.39;98435.29;1698462;81;21052;-42
2021/09/20 02:18:40;;;;;;;1.47;0.47;;;;;;;18.50;46.33;98434.92;1740255;81;21145;-42
2021/09/20 02:21:09;;;;;;;0.85;0.40;;;;;;;18.51;46.44;98442.44;1739577;80;20943;-42
2021/09/20 02:23:36;;;;;;;0.72;0.40;;;;;;;18.50;46.54;98434.92;1736453;80;21496;-41
2021/09/20 02:26:03;;;;;;;0.72;0.55;;;;;;;18.53;46.41;98437.33;1740016;80;21089;-41
2021/09/20 02:28:29;;;;;;;0.40;0.40;;;;;;;18.54;46.32;98439.03;1739983;81;21004;-40
2021/09/20 02:30:56;;;;;;;0.72;0.50;;;;;;;18.52;46.31;98432.96;1739070;81;21670;-42
2021/09/20 02:33:24;;;;;;;0.72;0.40;;;;;;;18.51;46.42;98428.63;1742562;81;20987;-45
2021/09/20 02:35:51;;;;;;;0.40;0.40;;;;;;;18.52;46.36;98426.80;1737382;81;21026;-44
2021/09/20 02:38:17;;;;;;;0.45;0.45;;;;;;;18.51;46.50;98429.96;1697698;82;21941;-43
2021/09/20 02:40:43;;;;;;;1.72;0.40;;;;;;;18.51;46.37;98433.95;1734555;81;21047;-41
2021/09/20 02:43:10;;;;;;;0.40;0.40;;;;;;;18.51;46.33;98437.12;1735889;81;21763;-42
2021/09/20 02:45:37;;;;;;;0.60;0.50;;;;;;;18.48;46.37;98430.71;1729121;81;21098;-44
2021/09/20 02:48:04;;;;;;;1.05;0.50;;;;;;;18.44;46.51;98430.13;1733068;81;20961;-40
2021/09/20 02:50:31;;;;;;;1.85;0.50;;;;;;;18.43;46.56;98439.08;1665442;84;22224;-40
2021/09/20 02:52:58;;;;;;;1.15;0.42;;;;;;;18.42;46.61;98432.55;1667556;83;20992;-42
2021/09/20 02:55:24;;;;;;;1.75;0.40;;;;;;;18.42;46.63;98429.39;1730232;81;21890;-40
2021/09/20 02:57:51;;;;;;;2.30;0.50;;;;;;;18.40;46.61;98420.69;1732696;81;20987;-42
2021/09/20 03:00:18;;;;;;;0.50;0.50;;;;;;;18.39;46.69;98425.65;1743538;80;21051;-41
2021/09/20 03:02:44;;;;;;;2.12;0.60;;;;;;;18.40;46.74;98428.69;1732954;81;21455;-40
2021/09/20 03:05:11;;;;;;;2.05;0.50;;;;;;;18.40;46.69;98428.69;1729275;81;20974;-41
2021/09/20 03:07:37;;;;;;;0.68;0.60;;;;;;;18.42;46.74;98438.72;1738302;81;21864;-42
2021/09/20 03:10:04;;;;;;;0.82;0.40;;;;;;;18.43;46.75;98435.09;1732140;81;21073;-42
2021/09/20 03:12:32;;;;;;;0.80;0.50;;;;;;;18.44;46.62;98436.79;1732432;81;21077;-42
2021/09/20 03:15:00;;;;;;;0.50;0.50;;;;;;;18.43;46.73;98435.59;1730391;81;20975;-46
2021/09/20 03:17:28;;;;;;;1.05;0.40;;;;;;;18.46;46.72;98441.95;1707936;82;20984;-42
2021/09/20 03:19:55;;;;;;;0.40;0.40;;;;;;;18.49;46.66;98438.58;1703089;83;21086;-42
2021/09/20 03:22:21;;;;;;;0.68;0.55;;;;;;;18.53;46.62;98437.33;1681257;82;21467;-41
2021/09/20 03:24:49;;;;;;;0.40;0.40;;;;;;;18.54;46.47;98433.70;1686935;82;21008;-41
2021/09/20 03:27:15;;;;;;;0.40;0.40;;;;;;;18.54;46.37;98447.48;1684560;83;21020;-42
2021/09/20 03:29:43;;;;;;;0.55;0.50;;;;;;;18.50;46.49;98436.25;1663550;84;21025;-40
2021/09/20 03:32:10;;;;;;;5.97;0.60;;;;;;;18.49;46.52;98443.91;1686459;82;22050;-43
2021/09/20 03:34:37;;;;;;;0.60;0.42;;;;;;;18.50;46.61;98445.57;1686998;84;20972;-42
2021/09/20 03:37:03;;;;;;;0.45;0.40;;;;;;;18.50;46.64;98444.24;1688368;83;20965;-41
2021/09/20 03:39:30;;;;;;;0.70;0.45;;;;;;;18.51;46.63;98452.60;1685428;83;20997;-43
2021/09/20 03:41:56;;;;;;;0.93;0.50;;;;;;;18.55;46.50;98450.52;1689355;83;21035;-43
2021/09/20 03:44:23;;;;;;;1.12;0.40;;;;;;;18.54;46.52;98447.02;1685049;84;21147;-41
2021/09/20 03:46:51;;;;;;;1.20;0.37;;;;;;;18.56;46.57;98453.05;1685969;82;21027;-42
2021/09/20 03:49:17;;;;;;;1.92;0.40;;;;;;;18.58;46.55;98455.59;1678793;84;21047;-45
2021/09/20 03:51:43;;;;;;;0.50;0.47;;;;;;;18.61;46.56;98454.47;1685863;84;21028;-41
2021/09/20 03:54:10;;;;;;;0.50;0.40;;;;;;;18.64;46.55;98463.54;1684824;84;21642;-42
2021/09/20 03:56:37;;;;;;;0.35;0.35;;;;;;;18.67;46.45;98461.95;1673083;84;22237;-41
2021/09/20 03:59:04;;;;;;;0.47;0.37;;;;;;;18.69;46.38;98471.98;1685060;84;20973;-44
2021/09/20 04:01:30;;;;;;;3.15;0.65;;;;;;;18.70;46.30;98469.69;1683073;82;21876;-42
2021/09/20 04:03:58;;;;;;;0.42;0.42;;;;;;;18.71;46.30;98469.56;1666407;84;21869;-41
2021/09/20 04:06:25;;;;;;;0.68;0.40;;;;;;;18.74;46.19;98465.77;1687222;84;21495;-41
2021/09/20 04:08:53;;;;;;;1.05;0.50;;;;;;;18.72;46.15;98470.40;1690790;83;21100;-42
2021/09/20 04:11:19;;;;;;;0.50;0.37;;;;;;;18.71;46.27;98482.02;1682719;84;20985;-41
2021/09/20 04:13:46;;;;;;;0.57;0.40;;;;;;;18.69;46.23;98478.65;1687947;84;21016;-44
2021/09/20 04:16:14;;;;;;;3.27;0.40;;;;;;;18.71;46.26;98482.02;1686621;83;21530;-42
2021/09/20 04:18:42;;;;;;;2.40;0.40;;;;;;;18.73;46.25;98485.42;1687092;83;21028;-42
2021/09/20 04:21:10;;;;;;;0.57;0.57;;;;;;;18.73;46.24;98488.09;1679429;84;20954;-41
2021/09/20 04:23:36;;;;;;;0.60;0.40;;;;;;;18.75;46.26;98492.30;1666937;84;21032;-42
2021/09/20 04:26:02;;;;;;;0.93;0.50;;;;;;;18.76;46.16;98483.80;1660834;84;21071;-43
2021/09/20 04:28:29;;;;;;;0.95;0.40;;;;;;;18.79;46.22;98492.87;1683819;84;21004;-42
2021/09/20 04:30:55;;;;;;;1.12;0.60;;;;;;;18.82;46.21;98495.28;1684933;84;21418;-42
2021/09/20 04:33:22;;;;;;;0.40;0.40;;;;;;;18.85;46.26;98495.06;1686785;84;21104;-43
2021/09/20 04:35:49;;;;;;;2.35;0.40;;;;;;;18.90;46.21;98496.84;1681106;84;21463;-43
2021/09/20 04:38:16;;;;;;;0.40;0.40;;;;;;;18.96;46.05;98509.29;1684719;84;21028;-41
2021/09/20 04:40:44;;;;;;;3.80;0.60;;;;;;;18.99;46.00;98509.03;1682428;84;20988;-43
2021/09/20 04:43:12;;;;;;;0.40;0.40;;;;;;;19.02;45.88;98511.44;1677900;84;20988;-45
2021/09/20 04:45:38;;;;;;;0.40;0.40;;;;;;;19.02;45.95;98510.11;1685654;82;21130;-41
2021/09/20 04:48:07;;;;;;;3.17;0.60;;;;;;;19.02;45.91;98514.94;1685572;84;21004;-44
2021/09/20 04:50:33;;;;;;;0.95;0.50;;;;;;;19.03;45.82;98509.11;1683106;84;21334;-42
2021/09/20 04:52:59;;;;;;;0.70;0.40;;;;;;;19.01;45.79;98511.07;1685708;84;20989;-42
2021/09/20 04:55:26;;;;;;;1.02;0.57;;;;;;;19.00;45.94;98512.06;1685900;84;20993;-44
2021/09/20 04:57:52;;;;;;;0.50;0.50;;;;;;;19.00;45.97;98507.57;1661487;84;22184;-42
2021/09/20 05:00:19;;;;;;;0.93;0.50;;;;;;;19.02;45.91;98516.77;1689664;83;21970;-45
2021/09/20 05:02:46;;;;;;;0.78;0.62;;;;;;;19.04;45.70;98518.31;1684567;82;21055;-43
2021/09/20 05:05:13;;;;;;;1.27;0.60;;;;;;;19.03;45.69;98515.31;1681028;84;21083;-41
2021/09/20 05:07:40;;;;;;;1.95;0.50;;;;;;;19.01;45.81;98515.07;1685866;84;21031;-41
2021/09/20 05:10:09;;;;;;;7.17;0.55;;;;;;;18.99;45.96;98522.36;1689254;84;20988;-41
2021/09/20 05:12:37;;;;;;;6.83;0.70;;;;;;;18.97;46.75;98524.31;1682874;83;21432;-41
2021/09/20 05:15:05;;;;;;;9.18;0.85;;;;;;;18.96;47.43;98523.95;1688260;84;20977;-41
2021/09/20 05:17:32;;;;;;;4.12;0.70;;;;;;;18.94;47.75;98526.25;1681764;82;21487;-45
2021/09/20 05:19:58;;;;;;;1.85;0.60;;;;;;;18.97;48.26;98540.31;1662523;84;20996;-42
2021/09/20 05:22:24;;;;;;;2.75;0.40;;;;;;;19.06;49.32;98534.18;1687476;83;22181;-44
2021/09/20 05:24:51;;;;;;;1.02;0.57;;;;;;;19.19;50.16;98540.16;1683419;83;21008;-42
2021/09/20 05:27:19;;;;;;;4.30;0.50;;;;;;;19.31;49.22;98533.75;1691370;84;20960;-43
2021/09/20 05:29:46;;;;;;;0.40;0.40;;;;;;;19.39;48.01;98534.44;1688395;82;21181;-41
2021/09/20 05:32:12;;;;;;;0.57;0.50;;;;;;;19.41;47.56;98538.30;1713146;81;21099;-41
2021/09/20 05:34:39;;;;;;;2.10;0.70;;;;;;;19.37;47.24;98532.89;1683413;83;22033;-42
2021/09/20 05:37:05;;;;;;;2.75;0.57;;;;;;;19.34;47.24;98539.33;1684939;83;21008;-45
2021/09/20 05:39:33;;;;;;;4.45;0.75;;;;;;;19.31;47.32;98543.09;1723251;81;20920;-43
2021/09/20 05:42:00;;;;;;;6.15;0.50;;;;;;;19.31;47.60;98549.75;1721743;81;20999;-42
2021/09/20 05:44:27;;;;;;;5.55;0.53;;;;;;;19.34;47.80;98551.83;1727668;81;21858;-43
2021/09/20 05:46:55;;;;;;;1.25;0.80;;;;;;;19.39;46.79;98556.27;1741207;81;21040;-44
2021/09/20 05:49:21;;;;;;;2.95;0.70;;;;;;;19.33;46.15;98556.79;1715223;81;21059;-41
2021/09/20 05:51:48;;;;;;;2.65;0.50;;;;;;;19.22;45.74;98561.73;1733278;81;20987;-42
2021/09/20 05:54:14;;;;;;;1.87;0.50;;;;;;;19.08;45.95;98560.22;1719283;81;21149;-42
2021/09/20 05:56:40;;;;;;;2.05;0.37;;;;;;;19.03;46.28;98571.76;1730576;81;22039;-45
2021/09/20 05:59:06;;;;;;;1.05;0.45;;;;;;;19.04;46.37;98570.30;1732509;81;21021;-42
2021/09/20 06:01:34;;;;;;;1.72;0.50;;;;;;;19.07;46.33;98576.70;1736677;80;20962;-42
2021/09/20 06:04:02;;;;;;;1.12;0.60;;;;;;;19.11;46.26;98575.95;1739680;81;21450;-42
2021/09/20 06:06:28;;;;;;;1.10;0.80;;;;;;;19.12;46.08;98573.66;1736750;80;21018;-45
2021/09/20 06:08:56;;;;;;;3.17;1.02;;;;;;;19.14;46.02;98573.03;1727187;80;21141;-43
2021/09/20 06:11:23;;;;;;;4.60;2.00;;;;;;;19.16;46.27;98583.08;1725749;81;21515;-46
2021/09/20 06:13:51;;;;;;;5.47;2.58;;;;;;;19.19;45.62;98579.31;1731125;80;21034;-47
2021/09/20 06:16:18;;;;;;;3.00;2.12;;;;;;;19.12;45.64;98586.99;1727623;80;21030;-47
2021/09/20 06:18:46;;;;;;;5.05;1.72;;;;;;;19.04;45.77;98588.12;1727346;81;21627;-47
2021/09/20 06:21:14;;;;;;;3.30;1.87;;;;;;;18.96;45.79;98593.25;1721951;80;20995;-46
2021/09/20 06:23:42;;;;;;;1.85;1.55;;;;;;;18.87;45.91;98594.38;1730164;80;21117;-46
2021/09/20 06:26:08;;;;;;;6.95;1.77;;;;;;;18.80;46.06;98601.17;1739673;79;21011;-42
2021/09/20 06:28:35;;;;;;;6.67;2.20;;;;;;;18.72;46.49;98599.63;1716524;81;20998;-42
2021/09/20 06:31:02;;;;;;;6.75;2.00;;;;;;;18.70;46.75;98598.42;1736330;81;21019;-43
2021/09/20 06:33:32;;;;;;;8.55;2.52;;;;;;;18.69;46.96;98601.21;1712405;81;21045;-43
2021/09/20 06:35:59;;;;;;;6.72;2.12;;;;;;;18.70;47.59;98608.24;1702271;82;21194;-45
2021/09/20 06:38:26;;;;;;;7.55;2.60;;;;;;;18.74;47.75;98605.20;1733130;80;21015;-44
2021/09/20 06:40:52;;;;;;;4.22;2.10;;;;;;;18.81;47.97;98613.53;1725075;81;20987;-44
2021/09/20 06:43:19;;;;;;;5.15;1.82;;;;;;;18.86;47.69;98619.36;1731697;80;21071;-44
2021/09/20 06:45:46;;;;;;;5.70;2.20;;;;;;;18.91;47.67;98615.83;1728993;81;21013;-43
2021/09/20 06:48:12;;;;;;;6.72;1.80;;;;;;;18.97;47.37;98624.28;1732639;79;22116;-44
2021/09/20 06:50:38;;;;;;;3.47;1.70;;;;;;;18.98;47.53;98617.48;1729414;81;20994;-44
2021/09/20 06:53:05;;;;;;;3.22;1.77;;;;;;;19.01;47.46;98618.54;1734712;80;20999;-46
2021/09/20 06:55:32;;;;;;;4.05;1.55;;;;;;;19.05;47.48;98620.48;1736095;81;21028;-49
2021/09/20 06:58:02;;;;;;;8.53;1.82;;;;;;;19.08;47.62;98624.20;1731390;81;21086;-46
2021/09/20 07:00:29;;;;;;;6.67;2.30;;;;;;;19.12;47.73;98632.32;1729802;80;21129;-43
2021/09/20 07:02:55;;;;;;;3.05;1.30;;;;;;;19.15;47.82;98637.40;1720815;80;21234;-42
2021/09/20 07:05:23;;;;;;;2.80;2.00;;;;;;;19.18;47.60;98642.48;1724254;80;20995;-44
2021/09/20 07:07:50;;;;;;;4.40;1.40;;;;;;;19.21;47.69;98641.36;1729957;81;20973;-44
2021/09/20 07:10:17;;;;;;;5.75;1.70;;;;;;;19.24;47.53;98639.77;1734407;80;21963;-43
2021/09/20 07:12:44;;;;;;;4.75;1.45;;;;;;;19.29;47.54;98644.23;1731326;80;21125;-46
2021/09/20 07:15:13;;;;;;;3.00;1.20;;;;;;;19.33;47.40;98655.48;1729262;81;20955;-46
2021/09/20 07:17:41;;;;;;;2.17;1.85;;;;;;;19.35;47.23;98657.05;1737692;81;20953;-42
2021/09/20 07:20:08;;;;;;;2.25;2.05;;;;;;;19.36;46.92;98657.89;1728785;80;20975;-44
2021/09/20 07:22:35;;;;;;;2.15;1.45;;;;;;;19.35;46.75;98662.85;1728692;81;20975;-42
2021/09/20 07:25:02;;;;;;;3.05;1.60;;;;;;;19.34;46.68;98658.52;1726879;81;21090;-46
2021/09/20 07:27:30;;;;;;;2.30;1.52;;;;;;;19.31;46.54;98658.27;1728189;81;21069;-46
2021/09/20 07:29:56;;;;;;;1.77;1.55;;;;;;;19.29;46.68;98658.39;1726919;80;21153;-43
2021/09/20 07:32:23;;;;;;;1.60;1.45;;;;;;;19.30;46.60;98666.77;1726127;81;21071;-45
2021/09/20 07:34:49;;;;;;;1.60;1.40;;;;;;;19.30;46.52;98665.44;1728050;80;21042;-44
2021/09/20 07:37:16;;;;;;;3.92;1.80;;;;;;;19.30;46.40;98669.44;1727230;81;22126;-44
2021/09/20 07:39:43;;;;;;;4.10;1.65;;;;;;;19.30;46.36;98683.27;1699990;82;21067;-45
2021/09/20 07:42:09;;;;;;;2.62;1.80;;;;;;;19.27;46.36;98680.85;1672528;83;21035;-43
2021/09/20 07:44:35;;;;;;;7.60;1.60;;;;;;;19.24;46.57;98680.61;1722793;81;21907;-41
2021/09/20 07:47:02;;;;;;;2.50;1.25;;;;;;;19.24;46.72;98679.28;1731555;81;21101;-45
2021/09/20 07:49:29;;;;;;;2.33;1.47;;;;;;;19.25;46.80;98679.65;1733404;81;22505;-46
2021/09/20 07:51:55;;;;;;;2.92;1.85;;;;;;;19.25;46.55;98680.14;1712046;81;21004;-44
2021/09/20 07:54:21;;;;;;;3.02;1.50;;;;;;;19.23;46.79;98682.94;1725173;81;21080;-44
2021/09/20 07:56:48;;;;;;;1.70;1.30;;;;;;;19.25;46.78;98682.81;1728252;81;21446;-46
2021/09/20 07:59:15;;;;;;;2.87;1.57;;;;;;;19.24;46.86;98676.61;1723906;80;21193;-45
2021/09/20 08:01:41;;;;;;;8.55;4.50;;;;;;;19.26;46.80;98682.66;1728247;81;22183;-47
2021/09/20 08:04:08;;;;;;;7.90;4.00;;;;;;;19.25;46.80;98686.31;1726339;80;20999;-45
2021/09/20 08:06:34;;;;;;;7.78;3.27;;;;;;;19.28;46.98;98681.20;1695488;81;20956;-43
2021/09/20 08:09:00;;;;;;;4.92;2.70;;;;;;;19.33;47.11;98684.81;1723543;81;21006;-45
2021/09/20 08:11:28;;;;;;;5.15;3.10;;;;;;;19.36;46.97;98680.56;1724873;81;21066;-45
2021/09/20 08:13:54;;;;;;;3.95;2.60;;;;;;;19.37;46.95;98678.27;1724242;80;21653;-47
2021/09/20 08:16:20;;;;;;;2.77;2.30;;;;;;;19.38;46.94;98684.77;1734581;80;20963;-46
2021/09/20 08:18:49;;;;;;;4.00;2.40;;;;;;;19.43;47.27;98692.39;1727301;81;21524;-44
2021/09/20 08:21:17;;;;;;;5.78;2.77;;;;;;;19.53;47.56;98685.30;1727969;80;21930;-44
2021/09/20 08:23:45;;;;;;;5.15;2.60;;;;;;;19.68;47.61;98691.99;1728424;81;20956;-46
2021/09/20 08:26:11;;;;;;;5.75;3.15;;;;;;;19.84;47.68;98697.41;1729536;81;22197;-46
2021/09/20 08:28:39;;;;;;;3.87;2.33;;;;;;;19.98;47.65;98692.20;1724978;80;22355;-49
2021/09/20 08:31:06;;;;;;;5.17;2.70;;;;;;;20.14;47.57;98697.91;1726615;80;21039;-44
2021/09/20 08:33:32;;;;;;;7.85;3.33;;;;;;;20.26;47.54;98697.31;1725379;80;21140;-47
2021/09/20 08:35:59;;;;;;;8.25;3.30;;;;;;;20.38;47.48;98688.21;1726092;80;20963;-47
2021/09/20 08:38:25;;;;;;;5.78;2.70;;;;;;;20.52;47.40;98694.16;1731272;80;21168;-43
2021/09/20 08:40:52;;;;;;;5.90;2.22;;;;;;;20.62;47.32;98694.19;1732714;81;21042;-44
2021/09/20 08:43:21;;;;;;;4.97;2.65;;;;;;;20.72;47.18;98692.41;1731205;80;21066;-47
2021/09/20 08:45:47;;;;;;;10.25;2.77;;;;;;;20.82;47.06;98706.63;1695421;82;21381;-46
2021/09/20 08:48:15;;;;;;;8.03;2.50;;;;;;;20.91;47.05;98693.78;1732197;80;21098;-45
2021/09/20 08:50:41;;;;;;;2.50;1.92;;;;;;;21.00;46.96;98690.77;1731840;80;21886;-44
2021/09/20 08:53:11;;;;;;;5.17;2.30;;;;;;;21.09;46.86;98702.44;1728004;80;21045;-44
2021/09/20 08:55:38;;;;;;;26.62;14.63;;;;;;;21.20;46.77;98696.09;1711123;81;21062;-42
2021/09/20 08:58:04;;;;;;;7.28;5.03;;;;;;;21.26;46.24;98707.08;1724278;80;21034;-42
2021/09/20 09:00:32;;;;;;;4.22;3.72;;;;;;;21.29;45.14;98708.14;1726532;81;21074;-42
2021/09/20 09:03:02;;;;;;;2.47;2.20;;;;;;;21.26;44.29;98707.58;1726604;80;21081;-43
2021/09/20 09:05:28;;;;;;;1.92;1.82;;;;;;;21.17;44.24;98711.95;1724985;81;21126;-41
2021/09/20 09:07:57;;;;;;;2.42;1.72;;;;;;;21.10;44.36;98718.86;1728760;81;21905;-43
2021/09/20 09:10:29;;;;;;;3.40;2.02;;;;;;;21.04;44.69;98715.39;1733022;80;20983;-45
2021/09/20 09:12:56;;;;;;;2.85;1.65;;;;;;;21.02;44.83;98724.89;1705607;81;21019;-43
2021/09/20 09:15:25;;;;;;;2.58;1.60;;;;;;;21.02;44.94;98724.89;1734841;80;21104;-43
2021/09/20 09:17:56;;;;;;;3.72;1.42;;;;;;;21.03;45.10;98731.94;1734621;81;21086;-43
2021/09/20 09:20:26;;;;;;;1.98;1.20;;;;;;;21.03;45.12;98729.27;1723088;81;21070;-43
2021/09/20 09:23:04;;;;;;;2.65;1.47;;;;;;;21.03;45.43;98735.95;1729333;80;20999;-41
2021/09/20 09:25:42;;;;;;;7.10;1.50;;;;;;;21.06;45.39;98742.83;1725460;81;22121;-44
2021/09/20 09:28:20;;;;;;;1.92;1.37;;;;;;;21.07;45.72;98744.54;1737132;80;21127;-46
2021/09/20 09:30:50;;;;;;;3.10;1.60;;;;;;;21.09;45.99;98743.40;1709134;81;21041;-44
2021/09/20 09:33:20;;;;;;;4.87;1.50;;;;;;;21.13;46.05;98744.83;1726136;81;21068;-43
2021/09/20 09:35:51;;;;;;;3.62;1.70;;;;;;;21.17;46.12;98749.91;1717350;81;21047;-45
2021/09/20 09:38:17;;;;;;;2.75;1.37;;;;;;;21.20;46.18;98746.92;1723157;81;21042;-46
2021/09/20 09:40:58;;;;;;;1.27;1.02;;;;;;;21.24;45.93;98746.52;1725643;80;21761;-44
2021/09/20 09:43:37;;;;;;;1.22;0.90;;;;;;;21.27;45.94;98750.75;1728894;80;21008;-43
2021/09/20 09:46:23;;;;;;;1.62;1.10;;;;;;;21.29;45.91;98751.45;1714245;80;21038;-43
2021/09/20 09:48:51;;;;;;;1.57;1.20;;;;;;;21.31;46.12;98758.34;1740229;80;20970;-43
2021/09/20 09:51:18;;;;;;;2.85;1.12;;;;;;;21.33;45.85;98755.52;1709623;81;21992;-45
2021/09/20 09:53:47;;;;;;;4.05;1.05;;;;;;;21.36;45.96;98756.59;1735389;81;21113;-46
2021/09/20 09:56:21;;;;;;;3.72;1.47;;;;;;;21.37;46.08;98760.97;1726815;80;21023;-46
2021/09/20 09:58:57;;;;;;;2.27;1.10;;;;;;;21.40;46.40;98759.34;1726334;80;21039;-47
2021/09/20 10:01:38;;;;;;;4.17;1.17;;;;;;;21.46;46.54;98758.77;1733704;80;21917;-47
2021/09/20 10:04:20;;;;;;;4.42;1.20;;;;;;;21.50;46.36;98752.19;1731097;80;21030;-46
2021/09/20 10:06:47;;;;;;;4.22;1.27;;;;;;;21.52;46.31;98760.92;1702847;80;21169;-45
2021/09/20 10:09:23;;;;;;;7.75;2.00;;;;;;;21.54;46.83;98770.15;1730381;81;21034;-44
2021/09/20 10:11:54;;;;;;;5.83;1.95;;;;;;;21.58;48.23;98764.84;1726374;80;21112;-46
2021/09/20 10:14:22;;;;;;;2.37;1.52;;;;;;;21.67;49.31;98766.69;1728836;80;21039;-46
2021/09/20 10:16:52;;;;;;;5.40;1.50;;;;;;;21.72;47.95;98772.96;1727751;80;21990;-47
2021/09/20 10:19:21;;;;;;;7.12;1.17;;;;;;;21.70;46.76;98765.55;1735692;80;21051;-46
2021/09/20 10:21:48;;;;;;;1.40;1.15;;;;;;;21.64;45.87;98769.64;1732694;81;21039;-43
2021/09/20 10:24:17;;;;;;;1.67;1.00;;;;;;;21.56;46.03;98768.67;1726677;80;22008;-45
2021/09/20 10:26:44;;;;;;;3.02;1.22;;;;;;;21.51;45.63;98775.78;1727664;80;20990;-44
2021/09/20 10:29:14;;;;;;;1.10;1.00;;;;;;;21.45;45.11;98783.86;1725270;80;21008;-42
2021/09/20 10:31:42;;;;;;;1.10;0.93;;;;;;;21.38;45.22;98788.05;1730632;80;21023;-48
2021/09/20 10:34:24;;;;;;;1.75;1.10;;;;;;;21.34;45.07;98789.34;1727668;80;21011;-47
2021/09/20 10:37:03;;;;;;;1.00;0.90;;;;;;;21.29;45.01;98790.25;1733516;80;21011;-43
2021/09/20 10:39:48;;;;;;;1.90;0.88;;;;;;;21.25;45.03;98794.17;1741971;80;21003;-47
2021/09/20 10:42:46;;;;;;;1.72;0.95;;;;;;;21.21;44.84;98795.44;1730350;80;21085;-47
2021/09/20 10:45:39;;;;;;;0.80;0.80;;;;;;;21.18;44.78;98797.05;1735222;80;20991;-46
2021/09/20 10:48:35;;;;;;;4.90;3.60;;;;;;;21.13;44.98;98802.81;1724491;81;21026;-45
2021/09/20 10:51:10;;;;;;;2.30;2.10;;;;;;;21.11;45.04;98797.59;1731501;80;20985;-43
2021/09/20 10:53:36;;;;;;;2.42;1.70;;;;;;;21.06;44.63;98801.17;1730174;80;20972;-45
2021/09/20 10:56:08;;;;;;;3.98;1.57;;;;;;;21.03;44.61;98804.15;1725059;81;20983;-47
2021/09/20 10:58:46;;;;;;;2.27;1.65;;;;;;;21.03;44.85;98801.48;1709682;80;20977;-45
2021/09/20 11:01:19;;;;;;;2.00;1.50;;;;;;;21.07;45.14;98800.70;1724531;80;21626;-45
2021/09/20 11:03:52;;;;;;;1.32;1.07;;;;;;;21.13;44.87;98802.34;1729193;81;21014;-49
2021/09/20 11:06:22;;;;;;;1.65;1.00;;;;;;;21.20;44.88;98804.44;1719807;81;22125;-48
2021/09/20 11:09:02;;;;;;;3.67;1.32;;;;;;;21.27;44.95;98808.27;1725029;81;20989;-47
2021/09/20 11:11:41;;;;;;;1.52;1.40;;;;;;;21.32;44.76;98806.03;1723519;80;22455;-47
2021/09/20 11:14:37;;;;;;;1.07;0.98;;;;;;;21.37;44.75;98807.79;1717366;81;21042;-45
2021/09/20 11:17:28;;;;;;;2.60;1.30;;;;;;;21.42;44.77;98807.38;1682080;83;27559;-45
2021/09/20 11:19:58;;;;;;;0.95;0.90;;;;;;;21.44;44.65;98799.55;1668349;83;21047;-46
2021/09/20 11:22:29;;;;;;;1.52;0.93;;;;;;;21.49;44.75;98808.53;1694688;82;21966;-47
2021/09/20 11:25:04;;;;;;;1.22;1.00;;;;;;;21.49;44.67;98812.05;1728302;81;22313;-45
2021/09/20 11:27:46;;;;;;;3.15;1.10;;;;;;;21.53;44.62;98812.61;1726303;81;20979;-46
2021/09/20 11:30:17;;;;;;;1.00;0.88;;;;;;;21.57;44.56;98813.17;1725824;82;21481;-48
2021/09/20 11:32:54;;;;;;;2.15;1.02;;;;;;;21.60;44.21;98812.42;1727399;81;21042;-45
2021/09/20 11:35:25;;;;;;;2.22;0.62;;;;;;;21.62;43.38;98817.61;1728076;81;22166;-46
2021/09/20 11:37:54;;;;;;;2.70;0.60;;;;;;;21.60;43.08;98818.25;1726698;81;22073;-47
2021/09/20 11:40:22;;;;;;;1.12;0.70;;;;;;;21.58;43.19;98821.56;1670815;83;21121;-49